OCN4WJ EDDF-LEPA
Flight info
| Callsign | OCN4WJ |
|---|---|
| Flight time | 2h 1m |
| Altitude | 37000 |
| Route | ANEKI2L/18 ANEKI Y163 HERBI Y164 MOPAN DCT LUTIX DCT BENOT DCT NEMOS DCT GEVEA DCT INCUS DCT BALSI DCT RETNO DCT TUPOX DCT MTG DCT DIVKO DCT VATIR DCT PIVUS N852 VERSO L129 LUNIK |
| Aircraft | A320/M-SDE3FGHIRWY/LB1 |
Departure
| Time | 2026-05-05 17:22 |
|---|---|
| Airport | Frankfurt Main Airport (EDDF) |
Arrival
| Time | 2026-05-05 19:23 |
|---|---|
| Airport | Palma de Mallorca Airport (LEPA) |
| Time | Latitude | Longitude | Altitude | Speed | Heading |
|---|---|---|---|---|---|
| 2026-05-05 16:35 | 50.04737 | 8.56737 | 356 ft | 0 kts | 115° |
| 2026-05-05 16:47 | 50.04737 | 8.56736 | 356 ft | 0 kts | 115° |
| 2026-05-05 16:57 | 50.04737 | 8.56737 | 356 ft | 0 kts | 115° |
| 2026-05-05 16:58 | 50.04737 | 8.56736 | 356 ft | 0 kts | 115° |
| 2026-05-05 17:02 | 50.04742 | 8.56715 | 364 ft | 4 kts | 108° |
| 2026-05-05 17:02 | 50.04750 | 8.56683 | 361 ft | 4 kts | 133° |
| 2026-05-05 17:02 | 50.04771 | 8.56669 | 362 ft | 4 kts | 194° |
| 2026-05-05 17:03 | 50.04788 | 8.56678 | 361 ft | 0 kts | 205° |
| 2026-05-05 17:09 | 50.04781 | 8.56673 | 361 ft | 6 kts | 205° |
| 2026-05-05 17:09 | 50.04736 | 8.56617 | 365 ft | 8 kts | 235° |
| 2026-05-05 17:09 | 50.04701 | 8.56544 | 356 ft | 8 kts | 232° |
| 2026-05-05 17:10 | 50.04676 | 8.56470 | 359 ft | 8 kts | 248° |
| 2026-05-05 17:10 | 50.04657 | 8.56392 | 364 ft | 8 kts | 249° |
| 2026-05-05 17:10 | 50.04639 | 8.56319 | 361 ft | 7 kts | 250° |
| 2026-05-05 17:10 | 50.04626 | 8.56261 | 362 ft | 5 kts | 250° |
| 2026-05-05 17:11 | 50.04616 | 8.56219 | 357 ft | 3 kts | 250° |
| 2026-05-05 17:11 | 50.04601 | 8.56159 | 358 ft | 11 kts | 249° |
| 2026-05-05 17:11 | 50.04565 | 8.56010 | 360 ft | 17 kts | 250° |
| 2026-05-05 17:11 | 50.04470 | 8.55928 | 357 ft | 16 kts | 195° |
| 2026-05-05 17:12 | 50.04358 | 8.55920 | 363 ft | 18 kts | 163° |
| 2026-05-05 17:12 | 50.04281 | 8.55963 | 357 ft | 9 kts | 167° |
| 2026-05-05 17:12 | 50.04232 | 8.55908 | 358 ft | 12 kts | 245° |
| 2026-05-05 17:12 | 50.04194 | 8.55750 | 359 ft | 17 kts | 250° |
| 2026-05-05 17:13 | 50.04150 | 8.55568 | 358 ft | 19 kts | 249° |
| 2026-05-05 17:13 | 50.04106 | 8.55379 | 358 ft | 19 kts | 249° |
| 2026-05-05 17:13 | 50.04061 | 8.55193 | 357 ft | 18 kts | 249° |
| 2026-05-05 17:13 | 50.04016 | 8.55005 | 356 ft | 19 kts | 249° |
| 2026-05-05 17:14 | 50.03965 | 8.54793 | 357 ft | 22 kts | 249° |
| 2026-05-05 17:14 | 50.03918 | 8.54599 | 354 ft | 20 kts | 255° |
| 2026-05-05 17:14 | 50.03868 | 8.54386 | 354 ft | 22 kts | 242° |
| 2026-05-05 17:14 | 50.03789 | 8.54176 | 351 ft | 23 kts | 249° |
| 2026-05-05 17:15 | 50.03731 | 8.53936 | 348 ft | 24 kts | 250° |
| 2026-05-05 17:15 | 50.03676 | 8.53704 | 347 ft | 21 kts | 249° |
| 2026-05-05 17:15 | 50.03623 | 8.53489 | 340 ft | 22 kts | 249° |
| 2026-05-05 17:15 | 50.03567 | 8.53261 | 338 ft | 23 kts | 249° |
| 2026-05-05 17:16 | 50.03510 | 8.53021 | 334 ft | 24 kts | 248° |
| 2026-05-05 17:16 | 50.03467 | 8.52854 | 333 ft | 16 kts | 246° |
| 2026-05-05 17:16 | 50.03434 | 8.52733 | 335 ft | 3 kts | 249° |
| 2026-05-05 17:20 | 50.03433 | 8.52730 | 331 ft | 2 kts | 249° |
| 2026-05-05 17:20 | 50.03416 | 8.52658 | 332 ft | 12 kts | 250° |
| 2026-05-05 17:20 | 50.03378 | 8.52593 | 333 ft | 7 kts | 180° |
| 2026-05-05 17:21 | 50.03375 | 8.52593 | 334 ft | 0 kts | 180° |
| 2026-05-05 17:21 | 50.03373 | 8.52593 | 334 ft | 3 kts | 180° |
| 2026-05-05 17:22 | 50.02454 | 8.52603 | 335 ft | 127 kts | 180° |
| 2026-05-05 17:22 | 50.01398 | 8.52617 | 383 ft | 168 kts | 182° |
| 2026-05-05 17:22 | 50.00242 | 8.52605 | 1095 ft | 161 kts | 181° |
| 2026-05-05 17:22 | 49.99127 | 8.52663 | 1689 ft | 166 kts | 179° |
| 2026-05-05 17:23 | 49.97901 | 8.52753 | 2030 ft | 187 kts | 179° |
| 2026-05-05 17:23 | 49.96519 | 8.52858 | 2328 ft | 210 kts | 179° |
| 2026-05-05 17:23 | 49.94974 | 8.52972 | 2715 ft | 232 kts | 178° |
| 2026-05-05 17:23 | 49.93357 | 8.53093 | 3536 ft | 235 kts | 178° |
| 2026-05-05 17:24 | 49.91736 | 8.53212 | 4323 ft | 233 kts | 178° |
| 2026-05-05 17:24 | 49.90119 | 8.53325 | 5271 ft | 232 kts | 178° |
| 2026-05-05 17:24 | 49.88505 | 8.53437 | 6209 ft | 232 kts | 178° |
| 2026-05-05 17:24 | 49.86886 | 8.53549 | 7058 ft | 234 kts | 179° |
| 2026-05-05 17:25 | 49.85256 | 8.53659 | 7891 ft | 236 kts | 179° |
| 2026-05-05 17:25 | 49.84166 | 8.53731 | 8458 ft | 237 kts | 179° |
| 2026-05-05 17:25 | 49.81948 | 8.53881 | 9622 ft | 240 kts | 180° |
| 2026-05-05 17:25 | 49.80284 | 8.53995 | 10390 ft | 243 kts | 180° |
| 2026-05-05 17:26 | 49.78583 | 8.54111 | 11133 ft | 247 kts | 181° |
| 2026-05-05 17:26 | 49.76840 | 8.53825 | 11526 ft | 264 kts | 197° |
| 2026-05-05 17:26 | 49.74994 | 8.52986 | 11791 ft | 287 kts | 198° |
| 2026-05-05 17:26 | 49.73013 | 8.52059 | 12021 ft | 311 kts | 198° |
| 2026-05-05 17:27 | 49.70873 | 8.51047 | 12378 ft | 328 kts | 198° |
| 2026-05-05 17:27 | 49.68671 | 8.50001 | 13031 ft | 334 kts | 198° |
| 2026-05-05 17:27 | 49.66430 | 8.48939 | 13741 ft | 339 kts | 198° |
| 2026-05-05 17:27 | 49.64164 | 8.47868 | 14371 ft | 343 kts | 198° |
| 2026-05-05 17:28 | 49.61882 | 8.46795 | 15034 ft | 346 kts | 198° |
| 2026-05-05 17:28 | 49.59558 | 8.45704 | 15705 ft | 349 kts | 198° |
| 2026-05-05 17:28 | 49.57233 | 8.44613 | 16353 ft | 353 kts | 198° |
| 2026-05-05 17:28 | 49.54866 | 8.43509 | 16999 ft | 356 kts | 198° |
| 2026-05-05 17:29 | 49.52485 | 8.42399 | 17644 ft | 359 kts | 198° |
| 2026-05-05 17:29 | 49.50078 | 8.41274 | 18263 ft | 362 kts | 198° |
| 2026-05-05 17:29 | 49.47653 | 8.40137 | 18799 ft | 366 kts | 198° |
| 2026-05-05 17:29 | 49.45214 | 8.38994 | 19339 ft | 369 kts | 198° |
| 2026-05-05 17:30 | 49.42780 | 8.37853 | 19871 ft | 372 kts | 198° |
| 2026-05-05 17:30 | 49.40301 | 8.36691 | 20414 ft | 374 kts | 197° |
| 2026-05-05 17:30 | 49.37798 | 8.35524 | 20927 ft | 377 kts | 197° |
| 2026-05-05 17:30 | 49.35273 | 8.34354 | 21445 ft | 380 kts | 197° |
| 2026-05-05 17:31 | 49.32732 | 8.33179 | 21963 ft | 383 kts | 197° |
| 2026-05-05 17:31 | 49.30170 | 8.31992 | 22472 ft | 386 kts | 197° |
| 2026-05-05 17:31 | 49.27586 | 8.30793 | 22971 ft | 389 kts | 197° |
| 2026-05-05 17:31 | 49.24997 | 8.29590 | 23488 ft | 391 kts | 197° |
| 2026-05-05 17:32 | 49.22379 | 8.28378 | 23942 ft | 394 kts | 197° |
| 2026-05-05 17:32 | 49.19748 | 8.27161 | 24383 ft | 396 kts | 197° |
| 2026-05-05 17:32 | 49.17106 | 8.25937 | 24805 ft | 398 kts | 197° |
| 2026-05-05 17:32 | 49.14448 | 8.24708 | 25215 ft | 399 kts | 197° |
| 2026-05-05 17:33 | 49.11789 | 8.23481 | 25626 ft | 401 kts | 197° |
| 2026-05-05 17:33 | 49.09106 | 8.22246 | 26031 ft | 403 kts | 197° |
| 2026-05-05 17:33 | 49.06420 | 8.21016 | 26425 ft | 405 kts | 197° |
| 2026-05-05 17:33 | 49.03714 | 8.19780 | 26814 ft | 407 kts | 197° |
| 2026-05-05 17:34 | 49.00992 | 8.18535 | 27205 ft | 409 kts | 197° |
| 2026-05-05 17:34 | 48.98266 | 8.17286 | 27580 ft | 411 kts | 197° |
| 2026-05-05 17:34 | 48.95553 | 8.16041 | 27970 ft | 413 kts | 197° |
| 2026-05-05 17:34 | 48.92794 | 8.14774 | 28345 ft | 415 kts | 197° |
| 2026-05-05 17:35 | 48.90029 | 8.13508 | 28706 ft | 417 kts | 197° |
| 2026-05-05 17:35 | 48.87236 | 8.12235 | 29068 ft | 419 kts | 197° |
| 2026-05-05 17:35 | 48.84445 | 8.10964 | 29411 ft | 421 kts | 197° |
| 2026-05-05 17:35 | 48.81627 | 8.09681 | 29739 ft | 423 kts | 197° |
| 2026-05-05 17:36 | 48.78802 | 8.08397 | 30043 ft | 425 kts | 197° |
| 2026-05-05 17:36 | 48.75963 | 8.07110 | 30323 ft | 426 kts | 197° |
| 2026-05-05 17:36 | 48.73115 | 8.05823 | 30592 ft | 428 kts | 197° |
| 2026-05-05 17:36 | 48.70259 | 8.04533 | 30861 ft | 430 kts | 197° |
| 2026-05-05 17:37 | 48.67395 | 8.03237 | 31185 ft | 430 kts | 197° |
| 2026-05-05 17:37 | 48.65497 | 8.02376 | 31451 ft | 428 kts | 197° |
| 2026-05-05 17:37 | 48.61724 | 8.00666 | 31976 ft | 427 kts | 197° |
| 2026-05-05 17:37 | 48.58888 | 7.99388 | 32358 ft | 425 kts | 197° |
| 2026-05-05 17:38 | 48.56057 | 7.98115 | 32740 ft | 424 kts | 197° |
| 2026-05-05 17:38 | 48.53234 | 7.96846 | 33128 ft | 423 kts | 197° |
| 2026-05-05 17:38 | 48.50417 | 7.95581 | 33506 ft | 422 kts | 197° |
| 2026-05-05 17:38 | 48.47614 | 7.94323 | 33872 ft | 421 kts | 197° |
| 2026-05-05 17:39 | 48.44806 | 7.93062 | 34189 ft | 420 kts | 197° |
| 2026-05-05 17:39 | 48.42014 | 7.91811 | 34480 ft | 420 kts | 197° |
| 2026-05-05 17:39 | 48.39211 | 7.90555 | 34755 ft | 420 kts | 197° |
| 2026-05-05 17:39 | 48.36413 | 7.89303 | 35028 ft | 419 kts | 197° |
| 2026-05-05 17:40 | 48.33649 | 7.88071 | 35273 ft | 419 kts | 197° |
| 2026-05-05 17:40 | 48.30814 | 7.86808 | 35544 ft | 419 kts | 197° |
| 2026-05-05 17:40 | 48.28054 | 7.85582 | 35799 ft | 419 kts | 197° |
| 2026-05-05 17:40 | 48.25258 | 7.84346 | 36046 ft | 419 kts | 197° |
| 2026-05-05 17:41 | 48.22461 | 7.83112 | 36284 ft | 419 kts | 197° |
| 2026-05-05 17:41 | 48.19661 | 7.81874 | 36523 ft | 419 kts | 197° |
| 2026-05-05 17:41 | 48.16853 | 7.80629 | 36742 ft | 419 kts | 197° |
| 2026-05-05 17:42 | 48.11270 | 7.78153 | 36848 ft | 419 kts | 197° |
| 2026-05-05 17:42 | 48.05694 | 7.75683 | 36843 ft | 418 kts | 197° |
| 2026-05-05 17:43 | 48.00150 | 7.73232 | 36848 ft | 418 kts | 197° |
| 2026-05-05 17:43 | 47.94572 | 7.70787 | 36849 ft | 418 kts | 197° |
| 2026-05-05 17:44 | 47.88989 | 7.68350 | 36860 ft | 418 kts | 197° |
| 2026-05-05 17:44 | 47.83416 | 7.65912 | 36877 ft | 417 kts | 197° |
| 2026-05-05 17:45 | 47.77843 | 7.63478 | 36875 ft | 417 kts | 198° |
| 2026-05-05 17:45 | 47.72274 | 7.61050 | 36891 ft | 417 kts | 197° |
| 2026-05-05 17:46 | 47.66702 | 7.58635 | 36901 ft | 418 kts | 197° |
| 2026-05-05 17:46 | 47.61120 | 7.56217 | 36890 ft | 417 kts | 198° |
| 2026-05-05 17:47 | 47.55577 | 7.53816 | 36890 ft | 418 kts | 198° |
| 2026-05-05 17:47 | 47.50008 | 7.51407 | 36890 ft | 417 kts | 198° |
| 2026-05-05 17:48 | 47.44439 | 7.49007 | 36902 ft | 417 kts | 198° |
| 2026-05-05 17:48 | 47.38861 | 7.46610 | 36893 ft | 417 kts | 198° |
| 2026-05-05 17:49 | 47.33288 | 7.44220 | 36901 ft | 417 kts | 198° |
| 2026-05-05 17:49 | 47.27720 | 7.41837 | 36887 ft | 417 kts | 198° |
| 2026-05-05 17:50 | 47.22143 | 7.39458 | 36903 ft | 417 kts | 198° |
| 2026-05-05 17:50 | 47.16886 | 7.36056 | 36887 ft | 413 kts | 215° |
| 2026-05-05 17:51 | 47.12791 | 7.30215 | 36886 ft | 412 kts | 231° |
| 2026-05-05 17:51 | 47.09238 | 7.23614 | 36887 ft | 413 kts | 231° |
| 2026-05-05 17:52 | 47.05668 | 7.17074 | 36891 ft | 413 kts | 231° |
| 2026-05-05 17:52 | 47.02068 | 7.10501 | 36910 ft | 414 kts | 231° |
| 2026-05-05 17:53 | 46.98470 | 7.03924 | 36896 ft | 414 kts | 231° |
| 2026-05-05 17:53 | 46.94871 | 6.97350 | 36899 ft | 414 kts | 230° |
| 2026-05-05 17:54 | 46.91199 | 6.90863 | 36895 ft | 414 kts | 225° |
| 2026-05-05 17:54 | 46.86813 | 6.85425 | 36895 ft | 414 kts | 219° |
| 2026-05-05 17:55 | 46.82349 | 6.80107 | 36894 ft | 414 kts | 219° |
| 2026-05-05 17:55 | 46.77914 | 6.74825 | 36897 ft | 414 kts | 219° |
| 2026-05-05 17:56 | 46.73444 | 6.69524 | 36913 ft | 414 kts | 219° |
| 2026-05-05 17:56 | 46.68974 | 6.64231 | 36909 ft | 415 kts | 219° |
| 2026-05-05 17:57 | 46.65250 | 6.59826 | 36911 ft | 415 kts | 219° |
| 2026-05-05 17:57 | 46.60779 | 6.54550 | 36916 ft | 415 kts | 219° |
| 2026-05-05 17:58 | 46.55554 | 6.48408 | 36918 ft | 415 kts | 219° |
| 2026-05-05 17:58 | 46.51070 | 6.43147 | 36924 ft | 415 kts | 219° |
| 2026-05-05 17:59 | 46.47336 | 6.38776 | 36921 ft | 415 kts | 219° |
| 2026-05-05 17:59 | 46.42851 | 6.33528 | 36915 ft | 414 kts | 219° |
| 2026-05-05 18:00 | 46.38357 | 6.28294 | 36911 ft | 414 kts | 219° |
| 2026-05-05 18:00 | 46.33863 | 6.23068 | 36908 ft | 414 kts | 219° |
| 2026-05-05 18:01 | 46.29371 | 6.17848 | 36908 ft | 414 kts | 219° |
| 2026-05-05 18:01 | 46.24456 | 6.13544 | 36904 ft | 416 kts | 202° |
| 2026-05-05 18:02 | 46.18846 | 6.11746 | 36902 ft | 419 kts | 191° |
| 2026-05-05 18:02 | 46.13080 | 6.10478 | 36894 ft | 419 kts | 191° |
| 2026-05-05 18:03 | 46.07313 | 6.09197 | 36902 ft | 419 kts | 192° |
| 2026-05-05 18:03 | 46.01582 | 6.07931 | 36909 ft | 419 kts | 192° |
| 2026-05-05 18:04 | 45.95831 | 6.06670 | 36913 ft | 417 kts | 192° |
| 2026-05-05 18:04 | 45.90105 | 6.05407 | 36911 ft | 416 kts | 192° |
| 2026-05-05 18:05 | 45.84387 | 6.04149 | 36910 ft | 415 kts | 192° |
| 2026-05-05 18:05 | 45.78699 | 6.02898 | 36912 ft | 414 kts | 192° |
| 2026-05-05 18:06 | 45.73069 | 6.01647 | 36910 ft | 414 kts | 192° |
| 2026-05-05 18:06 | 45.67320 | 6.00375 | 36904 ft | 413 kts | 192° |
| 2026-05-05 18:07 | 45.61635 | 5.99126 | 36898 ft | 412 kts | 192° |
| 2026-05-05 18:07 | 45.56003 | 5.97884 | 36899 ft | 413 kts | 192° |
| 2026-05-05 18:08 | 45.50327 | 5.96632 | 36892 ft | 412 kts | 192° |
| 2026-05-05 18:08 | 45.44679 | 5.95278 | 36891 ft | 411 kts | 195° |
| 2026-05-05 18:09 | 45.39100 | 5.93523 | 36891 ft | 410 kts | 197° |
| 2026-05-05 18:09 | 45.33546 | 5.91670 | 36900 ft | 410 kts | 197° |
| 2026-05-05 18:10 | 45.28018 | 5.89897 | 36897 ft | 410 kts | 196° |
| 2026-05-05 18:10 | 45.22442 | 5.88179 | 36898 ft | 410 kts | 196° |
| 2026-05-05 18:11 | 45.16879 | 5.86466 | 36898 ft | 409 kts | 196° |
| 2026-05-05 18:11 | 45.11320 | 5.84748 | 36906 ft | 409 kts | 196° |
| 2026-05-05 18:12 | 45.05754 | 5.83018 | 36907 ft | 409 kts | 196° |
| 2026-05-05 18:12 | 45.00195 | 5.81298 | 36914 ft | 409 kts | 196° |
| 2026-05-05 18:13 | 44.94679 | 5.79604 | 36922 ft | 408 kts | 196° |
| 2026-05-05 18:13 | 44.89135 | 5.77908 | 36930 ft | 407 kts | 196° |
| 2026-05-05 18:14 | 44.83600 | 5.76213 | 36932 ft | 406 kts | 196° |
| 2026-05-05 18:14 | 44.78087 | 5.74524 | 36932 ft | 405 kts | 196° |
| 2026-05-05 18:15 | 44.72611 | 5.72851 | 36955 ft | 405 kts | 196° |
| 2026-05-05 18:15 | 44.67098 | 5.71170 | 36946 ft | 404 kts | 196° |
| 2026-05-05 18:16 | 44.61637 | 5.69512 | 36936 ft | 403 kts | 196° |
| 2026-05-05 18:16 | 44.56158 | 5.67845 | 36933 ft | 403 kts | 196° |
| 2026-05-05 18:17 | 44.50675 | 5.66180 | 36914 ft | 402 kts | 196° |
| 2026-05-05 18:17 | 44.45199 | 5.64529 | 36918 ft | 402 kts | 196° |
| 2026-05-05 18:18 | 44.39735 | 5.62879 | 36941 ft | 403 kts | 196° |
| 2026-05-05 18:18 | 44.34453 | 5.60403 | 36936 ft | 398 kts | 205° |
| 2026-05-05 18:19 | 44.29333 | 5.57586 | 36923 ft | 399 kts | 205° |
| 2026-05-05 18:19 | 44.24165 | 5.54770 | 36925 ft | 399 kts | 204° |
| 2026-05-05 18:20 | 44.19001 | 5.51954 | 36937 ft | 399 kts | 204° |
| 2026-05-05 18:20 | 44.13842 | 5.49142 | 36933 ft | 398 kts | 205° |
| 2026-05-05 18:21 | 44.08688 | 5.46334 | 36922 ft | 398 kts | 205° |
| 2026-05-05 18:21 | 44.03549 | 5.43545 | 36924 ft | 398 kts | 205° |
| 2026-05-05 18:22 | 43.98396 | 5.40760 | 36926 ft | 398 kts | 205° |
| 2026-05-05 18:22 | 43.93233 | 5.37959 | 36926 ft | 398 kts | 205° |
| 2026-05-05 18:23 | 43.88087 | 5.35171 | 36925 ft | 398 kts | 205° |
| 2026-05-05 18:23 | 43.82920 | 5.32380 | 36920 ft | 398 kts | 205° |
| 2026-05-05 18:24 | 43.77803 | 5.29629 | 36919 ft | 398 kts | 205° |
| 2026-05-05 18:24 | 43.72645 | 5.26854 | 36923 ft | 397 kts | 205° |
| 2026-05-05 18:25 | 43.67490 | 5.24081 | 36930 ft | 397 kts | 205° |
| 2026-05-05 18:25 | 43.62325 | 5.21316 | 36925 ft | 397 kts | 205° |
| 2026-05-05 18:26 | 43.57212 | 5.18586 | 36924 ft | 397 kts | 205° |
| 2026-05-05 18:26 | 43.52065 | 5.15841 | 36926 ft | 396 kts | 205° |
| 2026-05-05 18:27 | 43.46896 | 5.13090 | 36928 ft | 396 kts | 205° |
| 2026-05-05 18:27 | 43.41755 | 5.10361 | 36928 ft | 396 kts | 205° |
| 2026-05-05 18:28 | 43.34635 | 5.04893 | 36925 ft | 390 kts | 217° |
| 2026-05-05 18:28 | 43.30185 | 5.00701 | 36923 ft | 390 kts | 217° |
| 2026-05-05 18:29 | 43.25700 | 4.96499 | 36923 ft | 390 kts | 217° |
| 2026-05-05 18:29 | 43.21219 | 4.92298 | 36919 ft | 390 kts | 217° |
| 2026-05-05 18:30 | 43.16735 | 4.88088 | 36917 ft | 390 kts | 217° |
| 2026-05-05 18:30 | 43.12283 | 4.83922 | 36919 ft | 390 kts | 217° |
| 2026-05-05 18:31 | 43.07804 | 4.79741 | 36919 ft | 390 kts | 217° |
| 2026-05-05 18:31 | 43.03172 | 4.75837 | 36923 ft | 391 kts | 212° |
| 2026-05-05 18:32 | 42.98413 | 4.72220 | 36921 ft | 391 kts | 212° |
| 2026-05-05 18:32 | 42.93652 | 4.68616 | 36921 ft | 391 kts | 212° |
| 2026-05-05 18:33 | 42.88939 | 4.65052 | 36920 ft | 390 kts | 212° |
| 2026-05-05 18:33 | 42.84191 | 4.61462 | 36917 ft | 390 kts | 212° |
| 2026-05-05 18:34 | 42.79458 | 4.57896 | 36919 ft | 389 kts | 212° |
| 2026-05-05 18:34 | 42.74709 | 4.54323 | 36916 ft | 389 kts | 212° |
| 2026-05-05 18:35 | 42.70002 | 4.50786 | 36912 ft | 389 kts | 212° |
| 2026-05-05 18:35 | 42.65271 | 4.47246 | 36909 ft | 388 kts | 212° |
| 2026-05-05 18:36 | 42.60536 | 4.43708 | 36902 ft | 388 kts | 212° |
| 2026-05-05 18:36 | 42.55810 | 4.40171 | 36901 ft | 388 kts | 212° |
| 2026-05-05 18:37 | 42.51084 | 4.36644 | 36909 ft | 387 kts | 212° |
| 2026-05-05 18:37 | 42.46398 | 4.33150 | 36908 ft | 387 kts | 212° |
| 2026-05-05 18:38 | 42.41676 | 4.29637 | 36900 ft | 387 kts | 212° |
| 2026-05-05 18:38 | 42.36957 | 4.26139 | 36904 ft | 387 kts | 212° |
| 2026-05-05 18:39 | 42.32243 | 4.22646 | 36897 ft | 387 kts | 212° |
| 2026-05-05 18:39 | 42.27518 | 4.19160 | 36907 ft | 386 kts | 212° |
| 2026-05-05 18:40 | 42.22805 | 4.15685 | 36897 ft | 386 kts | 212° |
| 2026-05-05 18:40 | 42.18123 | 4.12235 | 36894 ft | 386 kts | 212° |
| 2026-05-05 18:41 | 42.13407 | 4.08762 | 36890 ft | 386 kts | 212° |
| 2026-05-05 18:41 | 42.08715 | 4.05313 | 36894 ft | 386 kts | 213° |
| 2026-05-05 18:42 | 42.04000 | 4.01848 | 36885 ft | 386 kts | 213° |
| 2026-05-05 18:42 | 41.99294 | 3.98400 | 36884 ft | 386 kts | 212° |
| 2026-05-05 18:43 | 41.94615 | 3.94986 | 36886 ft | 386 kts | 212° |
| 2026-05-05 18:43 | 41.89478 | 3.92663 | 36877 ft | 397 kts | 196° |
| 2026-05-05 18:44 | 41.84028 | 3.91423 | 36874 ft | 398 kts | 196° |
| 2026-05-05 18:44 | 41.78568 | 3.90170 | 36873 ft | 398 kts | 196° |
| 2026-05-05 18:45 | 41.73148 | 3.88923 | 36871 ft | 398 kts | 196° |
| 2026-05-05 18:45 | 41.67682 | 3.87665 | 36871 ft | 398 kts | 196° |
| 2026-05-05 18:46 | 41.62219 | 3.86409 | 36874 ft | 399 kts | 196° |
| 2026-05-05 18:46 | 41.56744 | 3.85159 | 36879 ft | 399 kts | 196° |
| 2026-05-05 18:47 | 41.51273 | 3.83905 | 36876 ft | 399 kts | 196° |
| 2026-05-05 18:47 | 41.45839 | 3.82657 | 36878 ft | 399 kts | 196° |
| 2026-05-05 18:48 | 41.40368 | 3.81399 | 36880 ft | 399 kts | 196° |
| 2026-05-05 18:48 | 41.34894 | 3.80153 | 36881 ft | 399 kts | 196° |
| 2026-05-05 18:49 | 41.29444 | 3.78917 | 36886 ft | 399 kts | 196° |
| 2026-05-05 18:49 | 41.23960 | 3.77675 | 36891 ft | 399 kts | 196° |
| 2026-05-05 18:50 | 41.18495 | 3.76434 | 36885 ft | 398 kts | 196° |
| 2026-05-05 18:50 | 41.13192 | 3.74623 | 36887 ft | 389 kts | 207° |
| 2026-05-05 18:51 | 41.08150 | 3.72009 | 36888 ft | 389 kts | 207° |
| 2026-05-05 18:51 | 41.03094 | 3.69409 | 36886 ft | 389 kts | 206° |
| 2026-05-05 18:52 | 40.98048 | 3.66810 | 36889 ft | 389 kts | 207° |
| 2026-05-05 18:52 | 40.93040 | 3.64230 | 36888 ft | 389 kts | 206° |
| 2026-05-05 18:53 | 40.90510 | 3.62935 | 36701 ft | 388 kts | 206° |
| 2026-05-05 18:53 | 40.87996 | 3.61652 | 35779 ft | 388 kts | 206° |
| 2026-05-05 18:53 | 40.85477 | 3.60367 | 35026 ft | 389 kts | 206° |
| 2026-05-05 18:53 | 40.82956 | 3.59080 | 34302 ft | 384 kts | 206° |
| 2026-05-05 18:54 | 40.80468 | 3.57813 | 33575 ft | 383 kts | 206° |
| 2026-05-05 18:54 | 40.78005 | 3.56557 | 33087 ft | 376 kts | 206° |
| 2026-05-05 18:54 | 40.75579 | 3.55320 | 32589 ft | 370 kts | 206° |
| 2026-05-05 18:54 | 40.73231 | 3.54121 | 32105 ft | 364 kts | 207° |
| 2026-05-05 18:55 | 40.70884 | 3.52921 | 31621 ft | 359 kts | 207° |
| 2026-05-05 18:55 | 40.68573 | 3.51741 | 31150 ft | 354 kts | 207° |
| 2026-05-05 18:55 | 40.66285 | 3.50578 | 30682 ft | 350 kts | 207° |
| 2026-05-05 18:55 | 40.64028 | 3.49433 | 30222 ft | 346 kts | 207° |
| 2026-05-05 18:56 | 40.61844 | 3.48324 | 29747 ft | 342 kts | 207° |
| 2026-05-05 18:56 | 40.59640 | 3.47206 | 29275 ft | 336 kts | 207° |
| 2026-05-05 18:56 | 40.57503 | 3.46122 | 28856 ft | 331 kts | 207° |
| 2026-05-05 18:56 | 40.55380 | 3.45043 | 28421 ft | 325 kts | 207° |
| 2026-05-05 18:57 | 40.53283 | 3.43980 | 28005 ft | 321 kts | 207° |
| 2026-05-05 18:57 | 40.51202 | 3.42922 | 27583 ft | 320 kts | 208° |
| 2026-05-05 18:57 | 40.49137 | 3.41870 | 27180 ft | 318 kts | 208° |
| 2026-05-05 18:57 | 40.47069 | 3.40821 | 26771 ft | 317 kts | 207° |
| 2026-05-05 18:58 | 40.44982 | 3.39871 | 26319 ft | 320 kts | 201° |
| 2026-05-05 18:58 | 40.42758 | 3.39398 | 25866 ft | 328 kts | 192° |
| 2026-05-05 18:58 | 40.40456 | 3.39444 | 25411 ft | 332 kts | 187° |
| 2026-05-05 18:58 | 40.38147 | 3.39587 | 24959 ft | 331 kts | 187° |
| 2026-05-05 18:59 | 40.35850 | 3.39722 | 24509 ft | 330 kts | 187° |
| 2026-05-05 18:59 | 40.33557 | 3.39852 | 24060 ft | 330 kts | 187° |
| 2026-05-05 18:59 | 40.31267 | 3.39981 | 23606 ft | 329 kts | 187° |
| 2026-05-05 18:59 | 40.29012 | 3.40109 | 23094 ft | 328 kts | 186° |
| 2026-05-05 19:00 | 40.26734 | 3.40238 | 22620 ft | 327 kts | 186° |
| 2026-05-05 19:00 | 40.24468 | 3.40366 | 22152 ft | 325 kts | 186° |
| 2026-05-05 19:00 | 40.22218 | 3.40494 | 21694 ft | 323 kts | 186° |
| 2026-05-05 19:00 | 40.19976 | 3.40621 | 21219 ft | 322 kts | 186° |
| 2026-05-05 19:01 | 40.17732 | 3.40745 | 20746 ft | 322 kts | 186° |
| 2026-05-05 19:01 | 40.15500 | 3.40867 | 20267 ft | 321 kts | 185° |
| 2026-05-05 19:01 | 40.13273 | 3.40990 | 19792 ft | 321 kts | 185° |
| 2026-05-05 19:01 | 40.11035 | 3.41115 | 19320 ft | 321 kts | 185° |
| 2026-05-05 19:02 | 40.08802 | 3.41243 | 18842 ft | 322 kts | 185° |
| 2026-05-05 19:02 | 40.06578 | 3.41375 | 18578 ft | 314 kts | 185° |
| 2026-05-05 19:02 | 40.04422 | 3.41508 | 18197 ft | 308 kts | 185° |
| 2026-05-05 19:02 | 40.02326 | 3.41629 | 17940 ft | 305 kts | 185° |
| 2026-05-05 19:03 | 40.00216 | 3.41744 | 17667 ft | 303 kts | 185° |
| 2026-05-05 19:03 | 39.98111 | 3.41858 | 17325 ft | 302 kts | 185° |
| 2026-05-05 19:03 | 39.96015 | 3.41973 | 16886 ft | 302 kts | 184° |
| 2026-05-05 19:03 | 39.93914 | 3.42089 | 16426 ft | 303 kts | 184° |
| 2026-05-05 19:04 | 39.91812 | 3.42206 | 16081 ft | 301 kts | 184° |
| 2026-05-05 19:04 | 39.89716 | 3.42323 | 15660 ft | 301 kts | 184° |
| 2026-05-05 19:04 | 39.87643 | 3.42442 | 15318 ft | 295 kts | 184° |
| 2026-05-05 19:04 | 39.85603 | 3.42560 | 14697 ft | 292 kts | 184° |
| 2026-05-05 19:05 | 39.83595 | 3.42672 | 14240 ft | 290 kts | 184° |
| 2026-05-05 19:05 | 39.81562 | 3.42783 | 13803 ft | 292 kts | 183° |
| 2026-05-05 19:05 | 39.79534 | 3.42896 | 13445 ft | 291 kts | 183° |
| 2026-05-05 19:05 | 39.77511 | 3.43010 | 13013 ft | 288 kts | 183° |
| 2026-05-05 19:06 | 39.75528 | 3.43122 | 12485 ft | 284 kts | 183° |
| 2026-05-05 19:06 | 39.73573 | 3.43088 | 12054 ft | 277 kts | 195° |
| 2026-05-05 19:06 | 39.71833 | 3.42159 | 11643 ft | 268 kts | 218° |
| 2026-05-05 19:06 | 39.70340 | 3.40585 | 11249 ft | 280 kts | 217° |
| 2026-05-05 19:07 | 39.68736 | 3.39298 | 10800 ft | 271 kts | 213° |
| 2026-05-05 19:07 | 39.67088 | 3.38078 | 10198 ft | 268 kts | 212° |
| 2026-05-05 19:07 | 39.65494 | 3.36900 | 9948 ft | 268 kts | 212° |
| 2026-05-05 19:07 | 39.63871 | 3.35701 | 9890 ft | 269 kts | 212° |
| 2026-05-05 19:08 | 39.62232 | 3.34492 | 9899 ft | 272 kts | 212° |
| 2026-05-05 19:08 | 39.60596 | 3.33280 | 9908 ft | 271 kts | 212° |
| 2026-05-05 19:08 | 39.58958 | 3.32072 | 9907 ft | 271 kts | 212° |
| 2026-05-05 19:08 | 39.57325 | 3.30868 | 9901 ft | 271 kts | 212° |
| 2026-05-05 19:09 | 39.55681 | 3.29659 | 9834 ft | 267 kts | 212° |
| 2026-05-05 19:09 | 39.54122 | 3.28520 | 9571 ft | 251 kts | 212° |
| 2026-05-05 19:09 | 39.52618 | 3.27430 | 9070 ft | 245 kts | 212° |
| 2026-05-05 19:09 | 39.51135 | 3.26360 | 8488 ft | 243 kts | 212° |
| 2026-05-05 19:10 | 39.49660 | 3.25303 | 7906 ft | 241 kts | 212° |
| 2026-05-05 19:10 | 39.48279 | 3.24105 | 7300 ft | 236 kts | 231° |
| 2026-05-05 19:10 | 39.47573 | 3.22293 | 6919 ft | 224 kts | 261° |
| 2026-05-05 19:10 | 39.47761 | 3.20326 | 6491 ft | 226 kts | 294° |
| 2026-05-05 19:11 | 39.48799 | 3.18808 | 6198 ft | 232 kts | 326° |
| 2026-05-05 19:11 | 39.50361 | 3.18259 | 6001 ft | 241 kts | 358° |
| 2026-05-05 19:11 | 39.51966 | 3.18879 | 5996 ft | 250 kts | 26° |
| 2026-05-05 19:11 | 39.53439 | 3.20113 | 5997 ft | 253 kts | 32° |
| 2026-05-05 19:12 | 39.54883 | 3.21414 | 5991 ft | 252 kts | 28° |
| 2026-05-05 19:12 | 39.56503 | 3.22112 | 5945 ft | 244 kts | 358° |
| 2026-05-05 19:12 | 39.58156 | 3.21861 | 5825 ft | 238 kts | 344° |
| 2026-05-05 19:12 | 39.59769 | 3.21386 | 5688 ft | 237 kts | 342° |
| 2026-05-05 19:13 | 39.61365 | 3.20891 | 5570 ft | 235 kts | 342° |
| 2026-05-05 19:13 | 39.62940 | 3.20402 | 5438 ft | 229 kts | 342° |
| 2026-05-05 19:13 | 39.64475 | 3.19932 | 5312 ft | 225 kts | 342° |
| 2026-05-05 19:13 | 39.65984 | 3.19471 | 5190 ft | 217 kts | 342° |
| 2026-05-05 19:14 | 39.67398 | 3.19047 | 5063 ft | 200 kts | 342° |
| 2026-05-05 19:14 | 39.68718 | 3.18659 | 4991 ft | 191 kts | 342° |
| 2026-05-05 19:14 | 39.70016 | 3.18284 | 4998 ft | 191 kts | 342° |
| 2026-05-05 19:14 | 39.71304 | 3.17904 | 4989 ft | 190 kts | 339° |
| 2026-05-05 19:15 | 39.72411 | 3.17078 | 4995 ft | 182 kts | 310° |
| 2026-05-05 19:15 | 39.73062 | 3.15725 | 4995 ft | 178 kts | 285° |
| 2026-05-05 19:15 | 39.73159 | 3.14148 | 4994 ft | 178 kts | 261° |
| 2026-05-05 19:15 | 39.72676 | 3.12657 | 4998 ft | 181 kts | 242° |
| 2026-05-05 19:16 | 39.72020 | 3.11261 | 4995 ft | 181 kts | 242° |
| 2026-05-05 19:16 | 39.71370 | 3.09870 | 4995 ft | 181 kts | 242° |
| 2026-05-05 19:16 | 39.70717 | 3.08474 | 5020 ft | 180 kts | 242° |
| 2026-05-05 19:16 | 39.70066 | 3.07081 | 5004 ft | 181 kts | 242° |
| 2026-05-05 19:17 | 39.69413 | 3.05686 | 4997 ft | 181 kts | 242° |
| 2026-05-05 19:17 | 39.68759 | 3.04288 | 4879 ft | 181 kts | 242° |
| 2026-05-05 19:17 | 39.68105 | 3.02890 | 4675 ft | 180 kts | 242° |
| 2026-05-05 19:17 | 39.67457 | 3.01506 | 4447 ft | 179 kts | 242° |
| 2026-05-05 19:18 | 39.66812 | 3.00130 | 4214 ft | 179 kts | 242° |
| 2026-05-05 19:18 | 39.66165 | 2.98751 | 3976 ft | 178 kts | 242° |
| 2026-05-05 19:18 | 39.65522 | 2.97379 | 3738 ft | 177 kts | 242° |
| 2026-05-05 19:18 | 39.64888 | 2.96028 | 3509 ft | 178 kts | 242° |
| 2026-05-05 19:19 | 39.64238 | 2.94643 | 3273 ft | 177 kts | 242° |
| 2026-05-05 19:19 | 39.63612 | 2.93310 | 3046 ft | 173 kts | 242° |
| 2026-05-05 19:19 | 39.62991 | 2.91989 | 2814 ft | 168 kts | 241° |
| 2026-05-05 19:19 | 39.62399 | 2.90730 | 2600 ft | 160 kts | 241° |
| 2026-05-05 19:20 | 39.61823 | 2.89505 | 2397 ft | 158 kts | 241° |
| 2026-05-05 19:20 | 39.61254 | 2.88292 | 2179 ft | 157 kts | 240° |
| 2026-05-05 19:20 | 39.60684 | 2.87081 | 1979 ft | 157 kts | 240° |
| 2026-05-05 19:20 | 39.60117 | 2.85876 | 1767 ft | 156 kts | 240° |
| 2026-05-05 19:21 | 39.59549 | 2.84671 | 1558 ft | 157 kts | 240° |
| 2026-05-05 19:21 | 39.59007 | 2.83521 | 1357 ft | 143 kts | 239° |
| 2026-05-05 19:21 | 39.58505 | 2.82459 | 1121 ft | 134 kts | 238° |
| 2026-05-05 19:21 | 39.58018 | 2.81436 | 997 ft | 132 kts | 238° |
| 2026-05-05 19:22 | 39.57541 | 2.80424 | 837 ft | 133 kts | 238° |
| 2026-05-05 19:22 | 39.57067 | 2.79415 | 651 ft | 132 kts | 238° |
| 2026-05-05 19:22 | 39.56594 | 2.78402 | 464 ft | 131 kts | 238° |
| 2026-05-05 19:22 | 39.56121 | 2.77399 | 301 ft | 130 kts | 238° |
| 2026-05-05 19:23 | 39.55653 | 2.76403 | 123 ft | 129 kts | 238° |
| 2026-05-05 19:23 | 39.55202 | 2.75444 | 30 ft | 112 kts | 239° |
| 2026-05-05 19:23 | 39.54892 | 2.74785 | 30 ft | 52 kts | 239° |
| 2026-05-05 19:23 | 39.54809 | 2.74452 | 30 ft | 27 kts | 264° |
| 2026-05-05 19:24 | 39.54804 | 2.74289 | 30 ft | 17 kts | 269° |
| 2026-05-05 19:24 | 39.54801 | 2.74197 | 30 ft | 5 kts | 265° |
| 2026-05-05 19:24 | 39.54796 | 2.74152 | 30 ft | 5 kts | 257° |
| 2026-05-05 19:24 | 39.54784 | 2.74114 | 30 ft | 4 kts | 245° |
| 2026-05-05 19:25 | 39.54776 | 2.74094 | 30 ft | 3 kts | 242° |
| 2026-05-05 19:25 | 39.54742 | 2.74024 | 30 ft | 11 kts | 240° |
| 2026-05-05 19:25 | 39.54742 | 2.73965 | 30 ft | 5 kts | 299° |
| 2026-05-05 19:25 | 39.54775 | 2.73945 | 30 ft | 4 kts | 356° |
| 2026-05-05 19:26 | 39.54793 | 2.73958 | 30 ft | 3 kts | 44° |
| 2026-05-05 19:26 | 39.54802 | 2.73973 | 30 ft | 2 kts | 51° |
| 2026-05-05 19:26 | 39.54808 | 2.73983 | 30 ft | 4 kts | 51° |
| 2026-05-05 19:26 | 39.54837 | 2.74002 | 30 ft | 4 kts | 6° |
| 2026-05-05 19:27 | 39.54864 | 2.73990 | 30 ft | 4 kts | 333° |
| 2026-05-05 19:27 | 39.54885 | 2.73974 | 30 ft | 3 kts | 329° |
| 2026-05-05 19:27 | 39.54902 | 2.73960 | 30 ft | 3 kts | 328° |
| 2026-05-05 19:27 | 39.54917 | 2.73949 | 30 ft | 2 kts | 328° |
| 2026-05-05 19:28 | 39.54928 | 2.73936 | 30 ft | 3 kts | 309° |